Time,TemperatureF,DewpointF,PressureIn,WindDirection,WindDirectionDegrees,WindSpeedMPH,WindSpeedGustMPH,Humidity,HourlyPrecipIn,Conditions,Clouds,dailyrainin,SoftwareType,DateUTC
2013-02-17 00:00:00,6.3,-13.0,30.12,East,85,4.6,4.6,40,0.00,BKN,,0.00,WeatherDisplay:10.37,2013-02-17 06:00:00,
2013-02-17 00:05:00,6.3,-13.0,30.09,East,85,3.5,4.0,40,0.00,BKN,,0.00,WeatherDisplay:10.37,2013-02-17 06:05:00,
2013-02-17 00:10:00,6.4,-12.8,30.09,East,85,3.5,4.2,40,0.00,BKN,,0.00,WeatherDisplay:10.37,2013-02-17 06:10:00,
2013-02-17 00:16:00,6.3,-13.0,30.09,East,95,4.6,4.6,40,0.00,CLR,,0.00,WeatherDisplay:10.37,2013-02-17 06:16:00,
2013-02-17 00:21:00,6.3,-13.0,30.09,East,90,5.8,5.8,40,0.00,CLR,,0.00,WeatherDisplay:10.37,2013-02-17 06:21:00,
2013-02-17 00:26:00,6.6,-12.6,30.09,East,90,5.8,5.8,40,0.00,CLR,,0.00,WeatherDisplay:10.37,2013-02-17 06:26:00,
2013-02-17 00:31:00,6.8,-12.5,30.09,East,85,5.8,5.8,40,0.00,CLR,,0.00,WeatherDisplay:10.37,2013-02-17 06:31:00,
2013-02-17 00:36:00,6.8,-12.0,30.09,East,90,4.6,5.4,41,0.00,CLR,,0.00,WeatherDisplay:10.37,2013-02-17 06:36:00,
2013-02-17 00:42:00,6.8,-12.5,30.09,East,80,6.9,6.9,40,0.00,CLR,,0.00,WeatherDisplay:10.37,2013-02-17 06:42:00,
2013-02-17 00:47:00,6.8,-12.5,30.09,East,85,5.8,5.8,40,0.00,CLR,,0.00,WeatherDisplay:10.37,2013-02-17 06:47:00,
2013-02-17 00:52:00,6.8,-12.5,30.09,East,95,4.6,5.7,40,0.00,CLR,,0.00,WeatherDisplay:10.37,2013-02-17 06:52:00,
2013-02-17 00:57:00,7.0,-12.3,30.09,East,100,5.1,5.6,40,0.00,CLR,,0.00,WeatherDisplay:10.37,2013-02-17 06:57:00,
2013-02-17 01:02:00,7.0,-11.8,30.09,East,100,4.6,5.4,41,0.00,CLR,,0.00,WeatherDisplay:10.37,2013-02-17 07:02:00,
2013-02-17 01:07:00,7.2,-11.6,30.09,ESE,110,6.9,6.9,41,0.00,CLR,,0.00,WeatherDisplay:10.37,2013-02-17 07:07:00,
2013-02-17 01:13:00,7.3,-11.5,30.09,ESE,115,5.8,5.8,41,0.00,SCT,,0.00,WeatherDisplay:10.37,2013-02-17 07:13:00,
2013-02-17 01:18:00,7.3,-11.5,30.09,ESE,115,5.8,5.8,41,0.00,SCT,,0.00,WeatherDisplay:10.37,2013-02-17 07:18:00,
2013-02-17 01:23:00,8.2,-10.7,30.09,ESE,115,8.1,8.1,41,0.00,SCT,,0.00,WeatherDisplay:10.37,2013-02-17 07:23:00,
2013-02-17 01:28:00,8.4,-10.5,30.09,ESE,120,8.1,8.1,41,0.00,SCT,,0.00,WeatherDisplay:10.37,2013-02-17 07:28:00,
2013-02-17 01:33:00,8.4,-11.0,30.09,ESE,110,8.1,8.1,40,0.00,SCT,,0.00,WeatherDisplay:10.37,2013-02-17 07:33:00,
2013-02-17 01:38:00,8.6,-10.8,30.09,SE,125,8.1,8.1,40,0.00,SCT,,0.00,WeatherDisplay:10.37,2013-02-17 07:38:00,
2013-02-17 01:44:00,8.6,-10.8,30.09,ESE,120,9.2,9.2,40,0.00,SCT,,0.00,WeatherDisplay:10.37,2013-02-17 07:44:00,
2013-02-17 01:49:00,8.4,-11.5,30.09,ESE,115,6.9,8.0,39,0.00,SCT,,0.00,WeatherDisplay:10.37,2013-02-17 07:49:00,
2013-02-17 01:54:00,8.4,-11.5,30.09,ESE,120,5.8,7.8,39,0.00,SCT,,0.00,WeatherDisplay:10.37,2013-02-17 07:54:00,
2013-02-17 01:59:00,8.4,-11.5,30.09,East,95,5.8,7.1,39,0.00,SCT,,0.00,WeatherDisplay:10.37,2013-02-17 07:59:00,
2013-02-17 02:05:00,8.4,-11.5,30.09,ESE,110,6.9,6.9,39,0.00,SCT,,0.00,WeatherDisplay:10.37,2013-02-17 08:05:00,
2013-02-17 02:10:00,8.2,-12.2,30.09,SE,125,6.9,6.9,38,0.00,SCT,,0.00,WeatherDisplay:10.37,2013-02-17 08:10:00,
2013-02-17 02:15:00,8.4,-12.6,30.09,ESE,105,3.5,6.3,37,0.00,SCT,,0.00,WeatherDisplay:10.37,2013-02-17 08:15:00,
2013-02-17 02:20:00,8.2,-12.7,30.09,East,100,8.1,8.1,37,0.00,SCT,,0.00,WeatherDisplay:10.37,2013-02-17 08:20:00,
2013-02-17 02:25:00,8.2,-12.7,30.09,East,95,9.2,9.2,37,0.00,SCT,,0.00,WeatherDisplay:10.37,2013-02-17 08:25:00,
2013-02-17 02:30:00,8.4,-12.6,30.09,East,100,8.1,8.1,37,0.00,OVC,,0.00,WeatherDisplay:10.37,2013-02-17 08:30:00,
2013-02-17 02:36:00,8.4,-12.6,30.09,East,90,5.8,6.8,37,0.00,OVC,,0.00,WeatherDisplay:10.37,2013-02-17 08:36:00,
2013-02-17 02:41:00,8.2,-12.7,30.09,East,95,6.9,6.9,37,0.00,OVC,,0.00,WeatherDisplay:10.37,2013-02-17 08:41:00,
2013-02-17 02:46:00,8.2,-13.3,30.09,East,85,8.1,8.1,36,0.00,OVC,,0.00,WeatherDisplay:10.37,2013-02-17 08:46:00,
2013-02-17 02:51:00,8.4,-13.1,30.09,ESE,105,10.4,10.4,36,0.00,OVC,,0.00,WeatherDisplay:10.37,2013-02-17 08:51:00,
2013-02-17 02:56:00,8.4,-12.6,30.09,ESE,105,8.1,8.1,37,0.00,OVC,,0.00,WeatherDisplay:10.37,2013-02-17 08:56:00,
2013-02-17 03:02:00,8.6,-12.4,30.09,East,90,5.8,8.4,37,0.00,OVC,,0.00,WeatherDisplay:10.37,2013-02-17 09:02:00,
2013-02-17 03:07:00,8.8,-12.2,30.09,East,95,6.9,8.0,37,0.00,OVC,,0.00,WeatherDisplay:10.37,2013-02-17 09:07:00,
2013-02-17 03:12:00,9.0,-12.1,30.09,East,90,6.9,7.6,37,0.00,OVC,,0.00,WeatherDisplay:10.37,2013-02-17 09:12:00,
2013-02-17 03:17:00,9.1,-11.9,30.06,East,90,9.2,9.2,37,0.00,OVC,,0.00,WeatherDisplay:10.37,2013-02-17 09:17:00,
2013-02-17 03:22:00,9.3,-11.8,30.06,ESE,105,8.1,8.3,37,0.00,OVC,,0.00,WeatherDisplay:10.37,2013-02-17 09:22:00,
2013-02-17 03:28:00,9.5,-12.1,30.09,East,90,6.9,8.3,36,0.00,OVC,,0.00,WeatherDisplay:10.37,2013-02-17 09:28:00,
2013-02-17 03:33:00,9.5,-11.6,30.06,East,95,6.9,8.3,37,0.00,OVC,,0.00,WeatherDisplay:10.37,2013-02-17 09:33:00,
2013-02-17 03:38:00,9.7,-11.4,30.06,East,90,5.8,7.5,37,0.00,OVC,,0.00,WeatherDisplay:10.37,2013-02-17 09:38:00,
2013-02-17 03:43:00,9.9,-11.3,30.06,East,85,10.4,10.4,37,0.00,OVC,,0.00,WeatherDisplay:10.37,2013-02-17 09:43:00,
2013-02-17 03:49:00,9.9,-11.8,30.06,ESE,105,8.1,8.1,36,0.00,OVC,,0.00,WeatherDisplay:10.37,2013-02-17 09:49:00,
2013-02-17 03:54:00,9.9,-11.8,30.06,ESE,105,9.2,9.2,36,0.00,OVC,,0.00,WeatherDisplay:10.37,2013-02-17 09:54:00,
2013-02-17 03:59:00,9.9,-11.8,30.06,ENE,75,6.9,8.4,36,0.00,OVC,,0.00,WeatherDisplay:10.37,2013-02-17 09:59:00,
2013-02-17 04:05:00,9.9,-11.8,30.06,East,90,8.1,8.3,36,0.00,OVC,,0.00,WeatherDisplay:10.37,2013-02-17 10:05:00,
2013-02-17 04:10:00,9.9,-11.8,30.06,ESE,110,6.9,8.5,36,0.00,OVC,,0.00,WeatherDisplay:10.37,2013-02-17 10:10:00,
2013-02-17 04:15:00,9.7,-12.0,30.06,ESE,110,6.9,8.2,36,0.00,OVC,,0.00,WeatherDisplay:10.37,2013-02-17 10:15:00,
2013-02-17 04:20:00,9.7,-12.0,30.06,East,100,5.8,7.9,36,0.00,OVC,,0.00,WeatherDisplay:10.37,2013-02-17 10:20:00,
2013-02-17 04:25:00,9.5,-12.1,30.06,East,100,9.6,9.6,36,0.00,OVC,,0.00,WeatherDisplay:10.37,2013-02-17 10:25:00,
2013-02-17 04:30:00,9.3,-12.3,30.06,ESE,110,8.1,8.1,36,0.00,OVC,,0.00,WeatherDisplay:10.37,2013-02-17 10:30:00,
2013-02-17 04:35:00,9.1,-12.5,30.06,East,95,6.9,7.0,36,0.00,OVC,,0.00,WeatherDisplay:10.37,2013-02-17 10:35:00,
2013-02-17 04:41:00,9.0,-12.6,30.06,East,100,9.2,9.2,36,0.00,OVC,,0.00,WeatherDisplay:10.37,2013-02-17 10:41:00,
2013-02-17 04:46:00,8.8,-12.8,30.06,East,100,8.1,8.1,36,0.00,OVC,,0.00,WeatherDisplay:10.37,2013-02-17 10:46:00,
2013-02-17 04:51:00,8.8,-12.8,30.06,ESE,110,10.4,10.4,36,0.00,OVC,,0.00,WeatherDisplay:10.37,2013-02-17 10:51:00,
2013-02-17 04:56:00,8.6,-12.4,30.06,ESE,110,11.5,11.5,37,0.00,OVC,,0.00,WeatherDisplay:10.37,2013-02-17 10:56:00,
2013-02-17 05:02:00,8.6,-12.4,30.06,East,100,9.2,9.7,37,0.00,OVC,,0.00,WeatherDisplay:10.37,2013-02-17 11:02:00,
2013-02-17 05:07:00,8.6,-12.4,30.03,East,100,11.5,11.5,37,0.00,OVC,,0.00,WeatherDisplay:10.37,2013-02-17 11:07:00,
2013-02-17 05:12:00,8.6,-12.4,30.03,ESE,104,10.0,12.0,37,0.00,OVC,,0.00,WeatherDisplay:10.37,2013-02-17 11:12:00,
2013-02-17 05:17:00,8.4,-12.6,30.03,ESE,105,6.9,10.4,37,0.00,OVC,,0.00,WeatherDisplay:10.37,2013-02-17 11:17:00,
2013-02-17 05:22:00,8.2,-12.7,30.03,East,100,11.5,11.5,37,0.00,OVC,,0.00,WeatherDisplay:10.37,2013-02-17 11:22:00,
2013-02-17 05:27:00,8.2,-12.7,30.03,East,100,11.5,11.5,37,0.00,OVC,,0.00,WeatherDisplay:10.37,2013-02-17 11:27:00,
2013-02-17 05:33:00,8.2,-12.7,30.03,East,100,9.2,10.3,37,0.00,OVC,,0.00,WeatherDisplay:10.37,2013-02-17 11:33:00,
2013-02-17 05:38:00,8.2,-12.7,30.03,East,100,12.7,12.7,37,0.00,OVC,,0.00,WeatherDisplay:10.37,2013-02-17 11:38:00,
2013-02-17 05:43:00,8.2,-12.7,30.03,East,100,3.5,9.2,37,0.00,OVC,,0.00,WeatherDisplay:10.37,2013-02-17 11:43:00,
2013-02-17 05:48:00,8.2,-12.7,30.03,East,100,8.1,8.2,37,0.00,OVC,,0.00,WeatherDisplay:10.37,2013-02-17 11:48:00,
2013-02-17 05:53:00,8.1,-12.9,30.03,East,100,5.8,7.3,37,0.00,OVC,,0.00,WeatherDisplay:10.37,2013-02-17 11:53:00,
2013-02-17 05:59:00,7.9,-13.1,30.03,ESE,110,5.8,6.6,37,0.00,OVC,,0.00,WeatherDisplay:10.37,2013-02-17 11:59:00,
2013-02-17 06:04:00,7.9,-13.1,30.03,ESE,105,4.6,7.0,37,0.00,OVC,,0.00,WeatherDisplay:10.37,2013-02-17 12:04:00,
2013-02-17 06:09:00,7.9,-12.5,30.03,SE,135,6.9,6.9,38,0.00,OVC,,0.00,WeatherDisplay:10.37,2013-02-17 12:09:00,
2013-02-17 06:14:00,7.9,-12.5,30.03,ESE,105,8.1,8.1,38,0.00,OVC,,0.00,WeatherDisplay:10.37,2013-02-17 12:14:00,
2013-02-17 06:19:00,7.9,-12.5,30.03,ESE,105,5.8,7.1,38,0.00,OVC,,0.00,WeatherDisplay:10.37,2013-02-17 12:19:00,
2013-02-17 06:24:00,7.9,-12.5,30.03,ESE,105,5.8,6.9,38,0.00,OVC,,0.00,WeatherDisplay:10.37,2013-02-17 12:24:00,
2013-02-17 06:29:00,7.9,-12.5,30.03,East,100,10.4,10.4,38,0.00,CLR,,0.00,WeatherDisplay:10.37,2013-02-17 12:29:00,
2013-02-17 06:35:00,7.9,-12.5,30.03,East,85,6.9,8.0,38,0.00,CLR,,0.00,WeatherDisplay:10.37,2013-02-17 12:35:00,
2013-02-17 06:40:00,7.9,-12.0,30.00,ESE,105,6.9,7.9,39,0.00,CLR,,0.00,WeatherDisplay:10.37,2013-02-17 12:40:00,
2013-02-17 06:45:00,7.9,-12.0,30.00,East,100,9.6,9.6,39,0.00,CLR,,0.00,WeatherDisplay:10.37,2013-02-17 12:45:00,
2013-02-17 06:50:00,7.9,-12.0,30.00,East,95,9.2,9.2,39,0.00,CLR,,0.00,WeatherDisplay:10.37,2013-02-17 12:50:00,
2013-02-17 06:55:00,8.1,-11.3,30.00,ESE,105,9.2,9.2,40,0.00,CLR,,0.00,WeatherDisplay:10.37,2013-02-17 12:55:00,
2013-02-17 07:01:00,7.9,-11.5,30.00,ESE,105,8.1,8.3,40,0.00,CLR,,0.00,WeatherDisplay:10.37,2013-02-17 13:01:00,
2013-02-17 07:06:00,7.9,-11.5,30.00,East,100,8.1,8.5,40,0.00,CLR,,0.00,WeatherDisplay:10.37,2013-02-17 13:06:00,
2013-02-17 07:11:00,8.1,-11.3,30.00,East,95,9.2,9.2,40,0.00,CLR,,0.00,WeatherDisplay:10.37,2013-02-17 13:11:00,
2013-02-17 07:16:00,8.1,-11.3,30.00,ESE,105,9.2,9.2,40,0.00,CLR,,0.00,WeatherDisplay:10.37,2013-02-17 13:16:00,
2013-02-17 07:21:00,8.2,-11.2,30.00,ESE,115,9.2,9.2,40,0.00,CLR,,0.00,WeatherDisplay:10.37,2013-02-17 13:21:00,
2013-02-17 07:27:00,8.8,-10.7,30.00,East,100,9.2,9.2,40,0.00,CLR,,0.00,WeatherDisplay:10.37,2013-02-17 13:27:00,
2013-02-17 07:32:00,9.0,-10.0,30.00,East,100,9.2,9.2,41,0.00,CLR,,0.00,WeatherDisplay:10.37,2013-02-17 13:32:00,
2013-02-17 07:37:00,9.0,-10.0,30.00,ESE,110,5.8,9.0,41,0.00,CLR,,0.00,WeatherDisplay:10.37,2013-02-17 13:37:00,
2013-02-17 07:42:00,9.5,-9.5,30.00,East,100,8.0,9.0,41,0.00,CLR,,0.00,WeatherDisplay:10.37,2013-02-17 13:42:00,
2013-02-17 07:47:00,10.2,-8.9,30.00,East,95,4.6,7.6,41,0.00,CLR,,0.00,WeatherDisplay:10.37,2013-02-17 13:47:00,
2013-02-17 07:53:00,11.8,-7.4,30.00,East,100,8.1,8.1,41,0.00,CLR,,0.00,WeatherDisplay:10.37,2013-02-17 13:53:00,
2013-02-17 07:58:00,12.2,-7.1,30.00,ESE,105,8.1,8.1,41,0.00,CLR,,0.00,WeatherDisplay:10.37,2013-02-17 13:58:00,
2013-02-17 08:03:00,12.4,-6.9,30.00,East,95,8.1,8.1,41,0.00,CLR,,0.00,WeatherDisplay:10.37,2013-02-17 14:03:00,
2013-02-17 08:08:00,13.3,-6.1,30.00,East,100,9.2,9.2,41,0.00,CLR,,0.00,WeatherDisplay:10.37,2013-02-17 14:08:00,
2013-02-17 08:14:00,14.2,-5.8,30.00,ESE,105,9.2,9.2,40,0.00,CLR,,0.00,WeatherDisplay:10.37,2013-02-17 14:14:00,
2013-02-17 08:19:00,15.3,-4.8,30.00,East,95,6.9,8.1,40,0.00,CLR,,0.00,WeatherDisplay:10.37,2013-02-17 14:19:00,
2013-02-17 08:24:00,16.5,-4.2,29.97,ESE,105,11.5,11.5,39,0.00,CLR,,0.00,WeatherDisplay:10.37,2013-02-17 14:24:00,
2013-02-17 08:29:00,17.4,-4.5,29.97,SE,140,8.1,10.0,37,0.00,CLR,,0.00,WeatherDisplay:10.37,2013-02-17 14:29:00,
2013-02-17 08:34:00,16.3,-6.6,29.97,SE,140,10.4,10.4,35,0.00,CLR,,0.00,WeatherDisplay:10.37,2013-02-17 14:34:00,
2013-02-17 08:39:00,15.3,-8.8,30.00,SE,140,10.4,10.4,33,0.00,CLR,,0.00,WeatherDisplay:10.37,2013-02-17 14:39:00,
2013-02-17 08:44:00,15.3,-9.4,29.97,ESE,115,15.0,15.0,32,0.00,CLR,,0.00,WeatherDisplay:10.37,2013-02-17 14:44:00,
2013-02-17 08:49:00,15.4,-8.0,29.97,ESE,115,12.7,12.7,34,0.00,CLR,,0.00,WeatherDisplay:10.37,2013-02-17 14:49:00,
2013-02-17 08:55:00,16.7,-6.3,29.97,ESE,120,12.7,12.7,35,0.00,CLR,,0.00,WeatherDisplay:10.37,2013-02-17 14:55:00,
2013-02-17 09:00:00,18.0,-5.1,29.97,SE,125,11.5,12.1,35,0.00,CLR,,0.00,WeatherDisplay:10.37,2013-02-17 15:00:00,
2013-02-17 09:05:00,23.4,-0.3,29.97,SE,125,10.4,12.1,35,0.00,CLR,,0.00,WeatherDisplay:10.37,2013-02-17 15:05:00,
2013-02-17 09:10:00,24.1,-2.9,29.97,ESE,120,16.1,16.1,30,0.00,CLR,,0.00,WeatherDisplay:10.37,2013-02-17 15:10:00,
2013-02-17 09:16:00,25.0,-5.1,29.97,ESE,110,10.4,12.7,26,0.00,CLR,,0.00,WeatherDisplay:10.37,2013-02-17 15:16:00,
2013-02-17 09:21:00,24.1,-6.7,29.97,ESE,105,13.8,13.8,25,0.00,CLR,,0.00,WeatherDisplay:10.37,2013-02-17 15:21:00,
2013-02-17 09:26:00,23.7,-7.0,29.97,ESE,115,10.4,12.8,25,0.00,CLR,,0.00,WeatherDisplay:10.37,2013-02-17 15:26:00,
2013-02-17 09:31:00,23.0,-6.9,29.97,ESE,110,11.5,12.2,26,0.00,CLR,,0.00,WeatherDisplay:10.37,2013-02-17 15:31:00,
2013-02-17 09:36:00,24.8,-4.5,29.97,SE,125,11.5,11.8,27,0.00,CLR,,0.00,WeatherDisplay:10.37,2013-02-17 15:36:00,
2013-02-17 09:41:00,25.2,-5.0,29.97,ESE,120,8.1,11.4,26,0.00,CLR,,0.00,WeatherDisplay:10.37,2013-02-17 15:41:00,
2013-02-17 09:47:00,24.4,-8.1,29.97,ESE,105,12.7,12.7,23,0.00,CLR,,0.00,WeatherDisplay:10.37,2013-02-17 15:47:00,
2013-02-17 09:52:00,23.7,-7.0,29.97,ESE,110,11.5,11.5,25,0.00,CLR,,0.00,WeatherDisplay:10.37,2013-02-17 15:52:00,
2013-02-17 09:57:00,23.5,-7.2,29.97,East,100,13.8,13.8,25,0.00,CLR,,0.00,WeatherDisplay:10.37,2013-02-17 15:57:00,
2013-02-17 10:02:00,23.5,-7.2,29.97,East,100,13.8,13.8,25,0.00,CLR,,0.00,WeatherDisplay:10.37,2013-02-17 16:02:00,
2013-02-17 10:08:00,23.5,-7.2,29.94,East,95,10.4,12.0,25,0.00,CLR,,0.00,WeatherDisplay:10.37,2013-02-17 16:08:00,
2013-02-17 10:13:00,23.9,-6.1,29.94,SE,125,12.7,12.7,26,0.00,CLR,,0.00,WeatherDisplay:10.37,2013-02-17 16:13:00,
2013-02-17 10:18:00,23.7,-6.2,29.94,ESE,105,8.1,11.5,26,0.00,CLR,,0.00,WeatherDisplay:10.37,2013-02-17 16:18:00,
2013-02-17 10:23:00,24.3,-5.8,29.94,ESE,120,11.5,11.5,26,0.00,CLR,,0.00,WeatherDisplay:10.37,2013-02-17 16:23:00,
2013-02-17 10:29:00,24.4,-4.8,29.94,ESE,120,11.5,11.5,27,0.00,CLR,,0.00,WeatherDisplay:10.37,2013-02-17 16:29:00,
2013-02-17 10:34:00,25.2,-4.2,29.94,ESE,120,11.5,11.5,27,0.00,CLR,,0.00,WeatherDisplay:10.37,2013-02-17 16:34:00,
2013-02-17 10:39:00,25.5,-4.7,29.94,ESE,115,11.5,11.5,26,0.00,CLR,,0.00,WeatherDisplay:10.37,2013-02-17 16:39:00,
2013-02-17 10:44:00,25.3,-5.6,29.94,ESE,120,9.2,10.7,25,0.00,CLR,,0.00,WeatherDisplay:10.37,2013-02-17 16:44:00,
2013-02-17 10:49:00,26.1,-5.0,29.94,ESE,110,12.7,12.7,25,0.00,CLR,,0.00,WeatherDisplay:10.37,2013-02-17 16:49:00,
2013-02-17 10:55:00,26.1,-5.0,29.94,East,100,13.8,13.8,25,0.00,CLR,,0.00,WeatherDisplay:10.37,2013-02-17 16:55:00,
2013-02-17 11:00:00,25.9,-6.9,29.94,ESE,115,11.5,11.5,23,0.00,CLR,,0.00,WeatherDisplay:10.37,2013-02-17 17:00:00,
2013-02-17 11:05:00,26.6,-4.6,29.94,ESE,105,11.5,12.1,25,0.00,CLR,,0.00,WeatherDisplay:10.37,2013-02-17 17:05:00,
2013-02-17 11:10:00,27.5,-3.8,29.94,ESE,105,12.7,12.7,25,0.00,CLR,,0.00,WeatherDisplay:10.37,2013-02-17 17:10:00,
2013-02-17 11:15:00,26.6,-8.2,29.94,SE,130,11.5,12.3,21,0.00,SCT,,0.00,WeatherDisplay:10.37,2013-02-17 17:15:00,
2013-02-17 11:20:00,27.1,-5.8,29.94,SE,140,10.4,11.8,23,0.00,SCT,,0.00,WeatherDisplay:10.37,2013-02-17 17:20:00,
2013-02-17 11:26:00,27.9,-5.2,29.94,ESE,110,9.2,11.4,23,0.00,SCT,,0.00,WeatherDisplay:10.37,2013-02-17 17:26:00,
2013-02-17 11:31:00,28.2,-4.9,29.94,ESE,115,12.7,12.7,23,0.00,SCT,,0.00,WeatherDisplay:10.37,2013-02-17 17:31:00,
2013-02-17 11:36:00,28.2,-4.9,29.94,SE,125,11.5,11.5,23,0.00,SCT,,0.00,WeatherDisplay:10.37,2013-02-17 17:36:00,
2013-02-17 11:41:00,28.8,-4.5,29.91,ESE,115,12.7,12.7,23,0.00,SCT,,0.00,WeatherDisplay:10.37,2013-02-17 17:41:00,
2013-02-17 11:46:00,29.5,-5.7,29.91,ESE,115,12.7,12.7,21,0.00,SCT,,0.00,WeatherDisplay:10.37,2013-02-17 17:46:00,
2013-02-17 11:52:00,28.6,-7.5,29.91,ESE,110,13.8,13.8,20,0.00,SCT,,0.00,WeatherDisplay:10.37,2013-02-17 17:52:00,
2013-02-17 11:57:00,29.1,-6.0,29.91,ESE,105,16.1,16.1,21,0.00,SCT,,0.00,WeatherDisplay:10.37,2013-02-17 17:57:00,
2013-02-17 12:02:00,29.7,-3.7,29.91,East,100,19.6,19.6,23,0.00,SCT,,0.00,WeatherDisplay:10.37,2013-02-17 18:02:00,
2013-02-17 12:07:00,29.8,-5.4,29.91,ESE,120,13.8,14.6,21,0.00,SCT,,0.00,WeatherDisplay:10.37,2013-02-17 18:07:00,
2013-02-17 12:13:00,29.5,-5.7,29.91,SE,125,11.5,14.7,21,0.00,CLR,,0.00,WeatherDisplay:10.37,2013-02-17 18:13:00,
2013-02-17 12:18:00,29.5,-5.7,29.91,ESE,105,16.1,16.1,21,0.00,CLR,,0.00,WeatherDisplay:10.37,2013-02-17 18:18:00,
2013-02-17 12:23:00,30.0,-3.4,29.88,SE,135,16.1,16.1,23,0.00,CLR,,0.00,WeatherDisplay:10.37,2013-02-17 18:23:00,
2013-02-17 12:28:00,29.7,-3.7,29.88,ESE,105,20.7,20.7,23,0.00,CLR,,0.00,WeatherDisplay:10.37,2013-02-17 18:28:00,
2013-02-17 12:34:00,29.8,-3.5,29.88,ESE,115,20.7,20.7,23,0.00,CLR,,0.00,WeatherDisplay:10.37,2013-02-17 18:34:00,
2013-02-17 12:39:00,30.4,-3.1,29.88,ESE,110,12.7,16.6,23,0.00,CLR,,0.00,WeatherDisplay:10.37,2013-02-17 18:39:00,
2013-02-17 12:44:00,30.2,-3.2,29.88,SE,125,15.0,16.0,23,0.00,CLR,,0.00,WeatherDisplay:10.37,2013-02-17 18:44:00,
2013-02-17 12:49:00,30.4,-5.0,29.88,ESE,120,21.9,21.9,21,0.00,CLR,,0.00,WeatherDisplay:10.37,2013-02-17 18:49:00,
2013-02-17 12:54:00,30.4,-3.1,29.88,SE,130,12.7,16.8,23,0.00,CLR,,0.00,WeatherDisplay:10.37,2013-02-17 18:54:00,
2013-02-17 13:00:00,30.7,-1.0,29.88,ESE,120,16.1,16.6,25,0.00,CLR,,0.00,WeatherDisplay:10.37,2013-02-17 19:00:00,
2013-02-17 13:05:00,30.6,-2.9,29.88,ESE,105,15.0,17.2,23,0.00,CLR,,0.00,WeatherDisplay:10.37,2013-02-17 19:05:00,
2013-02-17 13:10:00,31.3,-0.5,29.85,ESE,120,19.6,19.6,25,0.00,CLR,,0.00,WeatherDisplay:10.37,2013-02-17 19:10:00,
2013-02-17 13:15:00,30.9,-2.6,29.85,ESE,115,16.1,17.0,23,0.00,CLR,,0.00,WeatherDisplay:10.37,2013-02-17 19:15:00,
2013-02-17 13:20:00,30.9,-2.6,29.85,SE,130,20.7,20.7,23,0.00,CLR,,0.00,WeatherDisplay:10.37,2013-02-17 19:20:00,
2013-02-17 13:25:00,30.9,-2.6,29.85,SE,130,20.7,20.7,23,0.00,CLR,,0.00,WeatherDisplay:10.37,2013-02-17 19:25:00,
2013-02-17 13:30:00,31.1,-0.7,29.85,SE,125,18.4,19.0,25,0.00,CLR,,0.00,WeatherDisplay:10.37,2013-02-17 19:30:00,
2013-02-17 13:35:00,31.1,-0.7,29.85,SE,125,16.1,18.3,25,0.00,CLR,,0.00,WeatherDisplay:10.37,2013-02-17 19:35:00,
2013-02-17 13:40:00,31.8,0.8,29.85,ESE,120,19.6,19.6,26,0.00,CLR,,0.00,WeatherDisplay:10.37,2013-02-17 19:40:00,
2013-02-17 13:46:00,31.5,-0.4,29.85,SE,135,16.1,16.8,25,0.00,CLR,,0.00,WeatherDisplay:10.37,2013-02-17 19:46:00,
2013-02-17 13:51:00,32.2,1.1,29.85,ESE,115,15.0,16.0,26,0.00,CLR,,0.00,WeatherDisplay:10.37,2013-02-17 19:51:00,
2013-02-17 13:56:00,32.4,1.2,29.85,ESE,115,15.0,16.0,26,0.00,CLR,,0.00,WeatherDisplay:10.37,2013-02-17 19:56:00,
2013-02-17 14:01:00,31.8,1.6,29.85,ESE,120,15.0,15.9,27,0.00,CLR,,0.00,WeatherDisplay:10.37,2013-02-17 20:01:00,
2013-02-17 14:06:00,31.3,1.1,29.85,ESE,115,15.0,15.5,27,0.00,CLR,,0.00,WeatherDisplay:10.37,2013-02-17 20:06:00,
2013-02-17 14:11:00,31.5,1.3,29.83,ESE,120,15.0,15.5,27,0.00,CLR,,0.00,WeatherDisplay:10.37,2013-02-17 20:11:00,
2013-02-17 14:17:00,31.8,1.6,29.83,SE,135,17.3,17.3,27,0.00,CLR,,0.00,WeatherDisplay:10.37,2013-02-17 20:17:00,
2013-02-17 14:22:00,32.2,2.7,29.83,ESE,115,13.8,15.0,28,0.00,CLR,,0.00,WeatherDisplay:10.37,2013-02-17 20:22:00,
2013-02-17 14:27:00,31.8,2.4,29.83,ESE,110,13.8,15.0,28,0.00,CLR,,0.00,WeatherDisplay:10.37,2013-02-17 20:27:00,
2013-02-17 14:32:00,32.2,3.4,29.83,SE,125,15.0,15.0,29,0.00,CLR,,0.00,WeatherDisplay:10.37,2013-02-17 20:32:00,
2013-02-17 14:37:00,32.4,3.6,29.83,ESE,120,18.4,18.4,29,0.00,CLR,,0.00,WeatherDisplay:10.37,2013-02-17 20:37:00,
2013-02-17 14:43:00,32.4,4.3,29.83,SE,125,13.1,14.5,30,0.00,CLR,,0.00,WeatherDisplay:10.37,2013-02-17 20:43:00,
2013-02-17 14:48:00,32.5,4.5,29.83,ESE,115,17.3,17.3,30,0.00,CLR,,0.00,WeatherDisplay:10.37,2013-02-17 20:48:00,
2013-02-17 14:53:00,32.0,3.3,29.80,ESE,105,13.8,15.1,29,0.00,CLR,,0.00,WeatherDisplay:10.37,2013-02-17 20:53:00,
2013-02-17 14:58:00,32.0,3.3,29.80,ESE,115,17.3,17.3,29,0.00,CLR,,0.00,WeatherDisplay:10.37,2013-02-17 20:58:00,
2013-02-17 15:03:00,31.8,3.9,29.80,ESE,115,19.6,19.6,30,0.00,CLR,,0.00,WeatherDisplay:10.37,2013-02-17 21:03:00,
2013-02-17 15:09:00,32.0,4.0,29.80,SE,125,16.1,16.5,30,0.00,CLR,,0.00,WeatherDisplay:10.37,2013-02-17 21:09:00,
2013-02-17 15:14:00,31.8,3.9,29.80,SE,125,17.3,17.3,30,0.00,CLR,,0.00,WeatherDisplay:10.37,2013-02-17 21:14:00,
2013-02-17 15:19:00,31.6,3.7,29.80,ESE,115,21.9,21.9,30,0.00,CLR,,0.00,WeatherDisplay:10.37,2013-02-17 21:19:00,
2013-02-17 15:24:00,31.6,4.4,29.80,ESE,115,17.3,17.4,31,0.00,CLR,,0.00,WeatherDisplay:10.37,2013-02-17 21:24:00,
2013-02-17 15:29:00,31.6,5.1,29.80,ESE,115,15.0,17.9,32,0.00,CLR,,0.00,WeatherDisplay:10.37,2013-02-17 21:29:00,
2013-02-17 15:34:00,31.5,4.9,29.80,ESE,115,20.7,20.7,32,0.00,CLR,,0.00,WeatherDisplay:10.37,2013-02-17 21:34:00,
2013-02-17 15:39:00,31.6,5.1,29.80,ESE,115,19.6,19.6,32,0.00,CLR,,0.00,WeatherDisplay:10.37,2013-02-17 21:39:00,
2013-02-17 15:44:00,31.6,5.1,29.80,SE,125,18.4,18.5,32,0.00,CLR,,0.00,WeatherDisplay:10.37,2013-02-17 21:44:00,
2013-02-17 15:49:00,31.6,5.1,29.80,ESE,115,17.3,18.0,32,0.00,CLR,,0.00,WeatherDisplay:10.37,2013-02-17 21:49:00,
2013-02-17 15:55:00,31.8,5.3,29.80,ESE,115,18.4,18.4,32,0.00,CLR,,0.00,WeatherDisplay:10.37,2013-02-17 21:55:00,
2013-02-17 16:00:00,31.6,5.1,29.77,SE,125,23.0,23.0,32,0.00,CLR,,0.00,WeatherDisplay:10.37,2013-02-17 22:00:00,
2013-02-17 16:05:00,31.5,4.9,29.77,ESE,105,19.6,19.6,32,0.00,CLR,,0.00,WeatherDisplay:10.37,2013-02-17 22:05:00,
2013-02-17 16:10:00,31.5,4.9,29.77,ESE,105,15.0,19.0,32,0.00,CLR,,0.00,WeatherDisplay:10.37,2013-02-17 22:10:00,
2013-02-17 16:16:00,31.3,5.5,29.77,ESE,115,20.7,20.7,33,0.00,CLR,,0.00,WeatherDisplay:10.37,2013-02-17 22:16:00,
2013-02-17 16:21:00,31.3,6.1,29.77,ESE,115,17.3,18.5,34,0.00,CLR,,0.00,WeatherDisplay:10.37,2013-02-17 22:21:00,
2013-02-17 16:26:00,30.9,6.4,29.77,ESE,120,15.0,16.8,35,0.00,CLR,,0.00,WeatherDisplay:10.37,2013-02-17 22:26:00,
2013-02-17 16:31:00,30.9,6.4,29.77,SE,125,16.1,16.8,35,0.00,CLR,,0.00,WeatherDisplay:10.37,2013-02-17 22:31:00,
2013-02-17 16:36:00,30.9,6.4,29.77,SE,125,16.1,16.3,35,0.00,CLR,,0.00,WeatherDisplay:10.37,2013-02-17 22:36:00,
2013-02-17 16:41:00,31.1,6.6,29.77,ESE,115,16.1,16.3,35,0.00,CLR,,0.00,WeatherDisplay:10.37,2013-02-17 22:41:00,
2013-02-17 16:47:00,30.7,6.3,29.77,ESE,110,19.6,19.6,35,0.00,CLR,,0.00,WeatherDisplay:10.37,2013-02-17 22:47:00,
2013-02-17 16:52:00,30.7,6.3,29.77,ESE,105,18.4,18.4,35,0.00,CLR,,0.00,WeatherDisplay:10.37,2013-02-17 22:52:00,
2013-02-17 16:57:00,30.7,6.3,29.77,ESE,114,18.0,20.0,35,0.00,CLR,,0.00,WeatherDisplay:10.37,2013-02-17 22:57:00,
2013-02-17 17:02:00,30.4,5.9,29.77,ESE,115,20.7,20.7,35,0.00,CLR,,0.00,WeatherDisplay:10.37,2013-02-17 23:02:00,
2013-02-17 17:07:00,30.4,6.6,29.77,ESE,115,17.3,17.5,36,0.00,CLR,,0.00,WeatherDisplay:10.37,2013-02-17 23:07:00,
2013-02-17 17:12:00,30.4,6.6,29.77,ESE,115,17.3,17.5,36,0.00,CLR,,0.00,WeatherDisplay:10.37,2013-02-17 23:12:00,
2013-02-17 17:18:00,30.4,6.6,29.74,ESE,115,21.9,21.9,36,0.00,CLR,,0.00,WeatherDisplay:10.37,2013-02-17 23:18:00,
2013-02-17 17:23:00,30.2,6.4,29.74,SE,125,17.3,19.5,36,0.00,CLR,,0.00,WeatherDisplay:10.37,2013-02-17 23:23:00,
2013-02-17 17:28:00,30.0,6.2,29.74,ESE,120,23.0,23.0,36,0.00,CLR,,0.00,WeatherDisplay:10.37,2013-02-17 23:28:00,
2013-02-17 17:33:00,30.0,6.9,29.74,ESE,115,20.7,20.7,37,0.00,CLR,,0.00,WeatherDisplay:10.37,2013-02-17 23:33:00,
2013-02-17 17:38:00,29.8,6.7,29.74,ESE,110,16.1,19.1,37,0.00,CLR,,0.00,WeatherDisplay:10.37,2013-02-17 23:38:00,
2013-02-17 17:44:00,29.8,6.7,29.74,SE,125,18.4,18.4,37,0.00,CLR,,0.00,WeatherDisplay:10.37,2013-02-17 23:44:00,
2013-02-17 17:49:00,29.7,6.5,29.74,ESE,110,18.4,18.4,37,0.00,CLR,,0.00,WeatherDisplay:10.37,2013-02-17 23:49:00,
2013-02-17 17:54:00,29.7,6.5,29.74,ESE,120,20.7,20.7,37,0.00,CLR,,0.00,WeatherDisplay:10.37,2013-02-17 23:54:00,
2013-02-17 17:59:00,130.1,95.5,25.96,ESE,115,19.6,19.6,37,0.00,CLR,,0.00,WeatherDisplay:10.37,2013-02-17 23:59:00,
2013-02-17 18:04:00,29.5,6.4,25.96,ESE,115,19.6,19.6,37,0.00,CLR,,0.00,WeatherDisplay:10.37,2013-02-18 00:04:00,
2013-02-17 18:10:00,29.5,6.4,29.74,ESE,115,19.6,19.6,37,0.00,CLR,,0.00,WeatherDisplay:10.37,2013-02-18 00:10:00,
2013-02-17 18:15:00,29.5,7.0,29.74,ESE,105,21.9,21.9,38,0.00,FEW,,0.00,WeatherDisplay:10.37,2013-02-18 00:15:00,
2013-02-17 18:20:00,29.5,7.0,29.74,ESE,120,17.3,20.0,38,0.00,FEW,,0.00,WeatherDisplay:10.37,2013-02-18 00:20:00,
2013-02-17 18:25:00,29.3,6.8,29.74,SE,125,11.5,19.2,38,0.00,FEW,,0.00,WeatherDisplay:10.37,2013-02-18 00:25:00,
2013-02-17 18:30:00,29.3,6.8,29.74,ESE,115,16.1,17.1,38,0.00,FEW,,0.00,WeatherDisplay:10.37,2013-02-18 00:30:00,
2013-02-17 18:36:00,29.1,6.6,29.74,ESE,120,8.1,16.0,38,0.00,FEW,,0.00,WeatherDisplay:10.37,2013-02-18 00:36:00,
2013-02-17 18:41:00,29.1,7.2,29.74,ESE,115,18.4,18.4,39,0.00,FEW,,0.00,WeatherDisplay:10.37,2013-02-18 00:41:00,
2013-02-17 18:46:00,29.1,7.2,29.74,ESE,105,17.3,17.3,39,0.00,FEW,,0.00,WeatherDisplay:10.37,2013-02-18 00:46:00,
2013-02-17 18:52:00,29.1,7.2,29.74,ESE,120,17.3,17.3,39,0.00,FEW,,0.00,WeatherDisplay:10.37,2013-02-18 00:52:00,
2013-02-17 18:57:00,29.1,7.2,29.74,ESE,120,12.7,15.4,39,0.00,FEW,,0.00,WeatherDisplay:10.37,2013-02-18 00:57:00,
2013-02-17 19:02:00,29.1,7.2,29.74,ESE,115,13.8,16.3,39,0.00,FEW,,0.00,WeatherDisplay:10.37,2013-02-18 01:02:00,
2013-02-17 19:07:00,29.1,7.8,29.74,SE,125,20.7,20.7,40,0.00,FEW,,0.00,WeatherDisplay:10.37,2013-02-18 01:07:00,
2013-02-17 19:12:00,29.1,7.8,29.74,ESE,122,16.0,21.0,40,0.00,FEW,,0.00,WeatherDisplay:10.37,2013-02-18 01:12:00,
2013-02-17 19:18:00,29.1,7.8,29.74,SE,125,18.4,18.4,40,0.00,CLR,,0.00,WeatherDisplay:10.37,2013-02-18 01:18:00,
2013-02-17 19:23:00,29.3,7.9,29.74,ESE,115,20.7,20.7,40,0.00,CLR,,0.00,WeatherDisplay:10.37,2013-02-18 01:23:00,
2013-02-17 19:28:00,29.1,7.8,29.74,ESE,120,16.1,18.4,40,0.00,CLR,,0.00,WeatherDisplay:10.37,2013-02-18 01:28:00,
2013-02-17 19:33:00,29.1,7.8,29.74,ESE,120,17.3,17.3,40,0.00,CLR,,0.00,WeatherDisplay:10.37,2013-02-18 01:33:00,
2013-02-17 19:38:00,29.1,7.8,29.74,SE,140,17.3,17.3,40,0.00,CLR,,0.00,WeatherDisplay:10.37,2013-02-18 01:38:00,
2013-02-17 19:43:00,28.9,7.6,29.74,SE,125,13.8,16.0,40,0.00,CLR,,0.00,WeatherDisplay:10.37,2013-02-18 01:43:00,
2013-02-17 19:48:00,29.1,7.8,29.74,SE,125,21.9,21.9,40,0.00,CLR,,0.00,WeatherDisplay:10.37,2013-02-18 01:48:00,
2013-02-17 19:54:00,28.9,7.6,29.74,SE,130,18.4,18.4,40,0.00,CLR,,0.00,WeatherDisplay:10.37,2013-02-18 01:54:00,
2013-02-17 19:59:00,29.1,8.3,29.71,ESE,115,16.1,18.1,41,0.00,CLR,,0.00,WeatherDisplay:10.37,2013-02-18 01:59:00,
2013-02-17 20:04:00,29.1,8.3,29.71,SE,130,18.4,18.4,41,0.00,CLR,,0.00,WeatherDisplay:10.37,2013-02-18 02:04:00,
2013-02-17 20:09:00,28.9,8.1,29.71,ESE,115,17.3,18.4,41,0.00,CLR,,0.00,WeatherDisplay:10.37,2013-02-18 02:09:00,
2013-02-17 20:14:00,29.1,8.3,29.71,SE,125,12.7,17.4,41,0.00,CLR,,0.00,WeatherDisplay:10.37,2013-02-18 02:14:00,
2013-02-17 20:20:00,29.1,8.3,29.71,SE,130,17.3,17.3,41,0.00,CLR,,0.00,WeatherDisplay:10.37,2013-02-18 02:20:00,
2013-02-17 20:25:00,29.1,8.3,29.71,ESE,110,23.0,23.0,41,0.00,CLR,,0.00,WeatherDisplay:10.37,2013-02-18 02:25:00,
2013-02-17 20:30:00,29.3,8.5,29.71,ESE,115,18.4,18.4,41,0.00,CLR,,0.00,WeatherDisplay:10.37,2013-02-18 02:30:00,
2013-02-17 20:35:00,29.1,8.3,29.71,ESE,110,17.3,18.1,41,0.00,CLR,,0.00,WeatherDisplay:10.37,2013-02-18 02:35:00,
2013-02-17 20:41:00,29.1,8.3,29.71,ESE,110,17.3,18.3,41,0.00,CLR,,0.00,WeatherDisplay:10.37,2013-02-18 02:41:00,
2013-02-17 20:46:00,29.1,8.3,29.71,SE,130,18.4,18.4,41,0.00,CLR,,0.00,WeatherDisplay:10.37,2013-02-18 02:46:00,
2013-02-17 20:51:00,29.1,8.3,29.71,SE,140,16.1,17.6,41,0.00,CLR,,0.00,WeatherDisplay:10.37,2013-02-18 02:51:00,
2013-02-17 20:56:00,29.3,8.5,29.71,ESE,110,13.8,17.1,41,0.00,CLR,,0.00,WeatherDisplay:10.37,2013-02-18 02:56:00,
2013-02-17 21:01:00,29.3,8.5,29.71,ESE,120,18.4,18.4,41,0.00,CLR,,0.00,WeatherDisplay:10.37,2013-02-18 03:01:00,
2013-02-17 21:06:00,29.1,8.3,29.71,ESE,120,12.7,16.2,41,0.00,CLR,,0.00,WeatherDisplay:10.37,2013-02-18 03:06:00,
2013-02-17 21:12:00,29.1,8.3,29.71,ESE,120,18.4,18.4,41,0.00,CLR,,0.00,WeatherDisplay:10.37,2013-02-18 03:12:00,
2013-02-17 21:17:00,29.1,8.3,29.71,SE,125,15.0,16.1,41,0.00,CLR,,0.00,WeatherDisplay:10.37,2013-02-18 03:17:00,
2013-02-17 21:22:00,29.1,8.3,29.71,ESE,115,16.1,16.1,41,0.00,CLR,,0.00,WeatherDisplay:10.37,2013-02-18 03:22:00,
2013-02-17 21:28:00,29.1,8.3,29.71,ESE,120,16.1,16.1,41,0.00,CLR,,0.00,WeatherDisplay:10.37,2013-02-18 03:28:00,
2013-02-17 21:33:00,29.1,8.3,29.71,ESE,115,16.1,16.1,41,0.00,CLR,,0.00,WeatherDisplay:10.37,2013-02-18 03:33:00,
2013-02-17 21:38:00,29.1,8.3,29.68,ESE,115,16.1,16.1,41,0.00,CLR,,0.00,WeatherDisplay:10.37,2013-02-18 03:38:00,
2013-02-17 21:43:00,29.1,8.3,29.68,ESE,120,12.7,15.4,41,0.00,CLR,,0.00,WeatherDisplay:10.37,2013-02-18 03:43:00,
2013-02-17 21:48:00,29.1,8.3,29.68,ESE,120,16.1,16.1,41,0.00,CLR,,0.00,WeatherDisplay:10.37,2013-02-18 03:48:00,
2013-02-17 21:54:00,29.1,8.3,29.68,ESE,110,19.6,19.6,41,0.00,CLR,,0.00,WeatherDisplay:10.37,2013-02-18 03:54:00,
2013-02-17 21:59:00,29.3,8.5,29.68,ESE,115,18.4,18.4,41,0.00,CLR,,0.00,WeatherDisplay:10.37,2013-02-18 03:59:00,
2013-02-17 22:02:00,28.6,7.8,29.65,East,95,12.7,12.8,41,0.00,CLR,,0.00,WeatherDisplay:10.37,2013-02-18 04:02:00,
2013-02-17 22:03:00,28.6,7.8,29.65,East,95,12.7,12.8,41,0.00,CLR,,0.00,WeatherDisplay:10.37,2013-02-18 04:03:00,
2013-02-17 22:04:00,29.3,8.5,29.68,ESE,115,16.1,17.0,41,0.00,CLR,,0.00,WeatherDisplay:10.37,2013-02-18 04:04:00,
2013-02-17 22:05:00,28.6,7.8,29.65,East,90,10.4,12.3,41,0.00,CLR,,0.00,WeatherDisplay:10.37,2013-02-18 04:05:00,
2013-02-17 22:06:00,28.6,7.8,29.65,East,90,10.4,12.3,41,0.00,CLR,,0.00,WeatherDisplay:10.37,2013-02-18 04:06:00,
2013-02-17 22:07:00,28.4,7.7,29.65,East,85,10.4,11.8,41,0.00,CLR,,0.00,WeatherDisplay:10.37,2013-02-18 04:07:00,
2013-02-17 22:08:00,28.4,7.7,29.65,East,85,10.4,11.8,41,0.00,CLR,,0.00,WeatherDisplay:10.37,2013-02-18 04:08:00,
2013-02-17 22:09:00,29.3,8.5,29.68,ESE,110,13.8,17.7,41,0.00,CLR,,0.00,WeatherDisplay:10.37,2013-02-18 04:09:00,
2013-02-17 22:10:00,28.4,7.7,29.65,East,95,10.4,11.5,41,0.00,CLR,,0.00,WeatherDisplay:10.37,2013-02-18 04:10:00,
2013-02-17 22:11:00,28.4,7.7,29.65,East,95,10.4,11.5,41,0.00,CLR,,0.00,WeatherDisplay:10.37,2013-02-18 04:11:00,
2013-02-17 22:12:00,28.4,7.7,29.65,East,95,10.4,11.5,41,0.00,CLR,,0.00,WeatherDisplay:10.37,2013-02-18 04:12:00,
2013-02-17 22:13:00,28.4,7.7,29.65,East,85,12.8,12.8,41,0.00,CLR,,0.00,WeatherDisplay:10.37,2013-02-18 04:13:00,
2013-02-17 22:14:00,28.4,7.7,29.65,East,85,12.7,12.7,41,0.00,CLR,,0.00,WeatherDisplay:10.37,2013-02-18 04:14:00,
2013-02-17 22:15:00,29.3,8.5,29.68,ESE,120,19.6,19.6,41,0.00,CLR,,0.00,WeatherDisplay:10.37,2013-02-18 04:15:00,
2013-02-17 22:16:00,28.4,7.7,29.65,East,95,13.8,13.8,41,0.00,CLR,,0.00,WeatherDisplay:10.37,2013-02-18 04:16:00,
2013-02-17 22:17:00,28.4,7.7,29.65,East,95,13.8,13.8,41,0.00,CLR,,0.00,WeatherDisplay:10.37,2013-02-18 04:17:00,
2013-02-17 22:18:00,28.4,7.7,29.65,East,95,13.8,13.8,41,0.00,CLR,,0.00,WeatherDisplay:10.37,2013-02-18 04:18:00,
2013-02-17 22:19:00,28.4,7.7,29.65,East,95,10.4,11.6,41,0.00,CLR,,0.00,WeatherDisplay:10.37,2013-02-18 04:19:00,
2013-02-17 22:20:00,29.3,8.5,29.68,East,100,15.0,17.7,41,0.00,CLR,,0.00,WeatherDisplay:10.37,2013-02-18 04:20:00,
2013-02-17 22:21:00,28.4,7.7,29.65,East,95,10.4,11.5,41,0.00,CLR,,0.00,WeatherDisplay:10.37,2013-02-18 04:21:00,
2013-02-17 22:22:00,28.4,7.7,29.65,East,85,10.4,11.3,41,0.00,CLR,,0.00,WeatherDisplay:10.37,2013-02-18 04:22:00,
2013-02-17 22:23:00,28.4,7.7,29.65,East,85,9.2,11.3,41,0.00,CLR,,0.00,WeatherDisplay:10.37,2013-02-18 04:23:00,
2013-02-17 22:24:00,28.4,7.7,29.65,East,85,9.2,11.3,41,0.00,CLR,,0.00,WeatherDisplay:10.37,2013-02-18 04:24:00,
2013-02-17 22:25:00,29.3,7.9,29.68,ESE,105,17.3,17.7,40,0.00,CLR,,0.00,WeatherDisplay:10.37,2013-02-18 04:25:00,
2013-02-17 22:26:00,28.4,7.7,29.65,East,90,11.5,11.5,41,0.00,CLR,,0.00,WeatherDisplay:10.37,2013-02-18 04:26:00,
2013-02-17 22:27:00,28.4,7.7,29.65,East,90,11.5,11.5,41,0.00,CLR,,0.00,WeatherDisplay:10.37,2013-02-18 04:27:00,
2013-02-17 22:28:00,28.4,7.7,29.65,East,90,9.2,11.2,41,0.00,CLR,,0.00,WeatherDisplay:10.37,2013-02-18 04:28:00,
2013-02-17 22:29:00,28.4,7.7,29.65,East,90,9.2,11.2,41,0.00,CLR,,0.00,WeatherDisplay:10.37,2013-02-18 04:29:00,
2013-02-17 22:30:00,29.3,7.9,29.68,ESE,110,13.8,17.3,40,0.00,CLR,,0.00,WeatherDisplay:10.37,2013-02-18 04:30:00,
2013-02-17 22:31:00,28.4,7.7,29.65,East,80,11.5,11.5,41,0.00,CLR,,0.00,WeatherDisplay:10.37,2013-02-18 04:31:00,
2013-02-17 22:32:00,28.4,7.7,29.65,East,80,11.5,11.5,41,0.00,CLR,,0.00,WeatherDisplay:10.37,2013-02-18 04:32:00,
2013-02-17 22:33:00,28.4,7.7,29.65,East,80,11.5,11.5,41,0.00,CLR,,0.00,WeatherDisplay:10.37,2013-02-18 04:33:00,
2013-02-17 22:35:00,29.3,7.9,29.68,East,100,16.1,16.3,40,0.00,CLR,,0.00,WeatherDisplay:10.37,2013-02-18 04:35:00,
2013-02-17 22:40:00,29.1,7.8,29.68,East,100,15.0,15.5,40,0.00,CLR,,0.00,WeatherDisplay:10.37,2013-02-18 04:40:00,
2013-02-17 22:46:00,28.9,7.6,29.68,East,100,12.7,15.1,40,0.00,CLR,,0.00,WeatherDisplay:10.37,2013-02-18 04:46:00,
2013-02-17 22:51:00,28.8,7.4,29.68,East,95,12.7,14.1,40,0.00,CLR,,0.00,WeatherDisplay:10.37,2013-02-18 04:51:00,
2013-02-17 22:56:00,28.6,7.8,29.65,East,100,10.4,13.4,41,0.00,CLR,,0.00,WeatherDisplay:10.37,2013-02-18 04:56:00,
2013-02-17 23:20:00,28.4,7.7,29.65,East,85,9.2,11.3,41,0.00,CLR,,0.00,WeatherDisplay:10.37,2013-02-18 05:20:00,
2013-02-17 23:26:00,28.4,7.7,29.65,East,90,9.2,11.2,41,0.00,CLR,,0.00,WeatherDisplay:10.37,2013-02-18 05:26:00,
2013-02-17 23:31:00,28.4,7.7,29.65,East,80,11.5,11.5,41,0.00,CLR,,0.00,WeatherDisplay:10.37,2013-02-18 05:31:00,
2013-02-17 23:37:00,28.2,7.5,29.65,East,85,11.5,11.5,41,0.00,CLR,,0.00,WeatherDisplay:10.37,2013-02-18 05:37:00,
2013-02-17 23:42:00,28.2,7.5,29.65,East,90,10.0,12.0,41,0.00,CLR,,0.00,WeatherDisplay:10.37,2013-02-18 05:42:00,
2013-02-17 23:47:00,28.0,7.3,29.65,East,80,8.1,11.0,41,0.00,CLR,,0.00,WeatherDisplay:10.37,2013-02-18 05:47:00,
2013-02-17 23:52:00,28.0,7.3,29.65,East,90,9.2,10.2,41,0.00,CLR,,0.00,WeatherDisplay:10.37,2013-02-18 05:52:00,
2013-02-17 23:58:00,27.9,7.2,29.65,East,90,9.2,9.9,41,0.00,CLR,,0.00,WeatherDisplay:10.37,2013-02-18 05:58:00,